Time;durP1;ratioP1;P1;durP2;ratioP2;P2;SDS_P1;SDS_P2;PMS_P1;PMS_P2;Temp;Humidity;BMP_temperature;BMP_pressure;BME280_temperature;BME280_humidity;BME280_pressure;Samples;Min_cycle;Max_cycle;Signal;HPM_P1;HPM_P2
2021/12/22 00:00:50;;;;;;;43.13;23.88;;;;;;;4.38;79.85;99116.56;4947365;28;20026;-62
2021/12/22 00:03:17;;;;;;;34.95;21.08;;;;;;;4.05;80.79;99066.19;4963932;28;21515;-60
2021/12/22 00:05:45;;;;;;;30.73;18.60;;;;;;;4.32;80.61;99111.81;4957923;28;20034;-60
2021/12/22 00:08:14;;;;;;;30.92;19.23;;;;;;;4.20;80.77;99109.06;4957746;28;20027;-61
2021/12/22 00:10:41;;;;;;;30.48;18.67;;;;;;;4.21;80.92;99118.41;4956922;28;20031;-62
2021/12/22 00:13:06;;;;;;;30.83;20.05;;;;;;;4.02;80.87;99110.97;4960121;28;20030;-61
2021/12/22 00:15:32;;;;;;;39.05;23.05;;;;;;;3.61;82.12;99103.94;4973050;28;20705;-61
2021/12/22 00:17:58;;;;;;;37.63;21.20;;;;;;;3.86;81.82;99110.22;4976437;28;20038;-61
2021/12/22 00:20:24;;;;;;;40.75;22.05;;;;;;;3.82;81.76;99111.31;4959422;28;20037;-62
2021/12/22 00:22:49;;;;;;;32.10;19.17;;;;;;;3.68;82.56;99104.41;4952292;28;20425;-61
2021/12/22 00:25:16;;;;;;;30.98;18.70;;;;;;;3.83;81.74;99116.38;4948863;28;20519;-61
2021/12/22 00:27:42;;;;;;;26.95;16.60;;;;;;;3.88;81.52;99105.81;4958924;28;20029;-61
2021/12/22 00:30:08;;;;;;;25.67;16.08;;;;;;;3.81;81.47;99099.38;4960412;28;20402;-60
2021/12/22 00:32:36;;;;;;;26.30;16.00;;;;;;;3.54;81.37;99066.66;4954910;28;20031;-62
2021/12/22 00:35:03;;;;;;;23.60;13.57;;;;;;;3.55;80.59;99058.00;4969614;28;20091;-60
2021/12/22 00:37:29;;;;;;;25.45;14.60;;;;;;;3.79;80.89;99098.63;4951761;28;20891;-61
2021/12/22 00:39:55;;;;;;;31.88;17.77;;;;;;;3.75;80.23;99079.97;4955839;28;20114;-61
2021/12/22 00:42:21;;;;;;;30.45;17.17;;;;;;;3.78;80.42;99097.81;4974850;28;20520;-61
2021/12/22 00:44:50;;;;;;;30.52;15.80;;;;;;;3.63;80.34;99096.13;4958298;28;20046;-61
2021/12/22 00:47:27;;;;;;;22.33;13.02;;;;;;;3.47;81.48;99097.00;4956840;28;20035;-60
2021/12/22 00:49:54;;;;;;;18.42;11.20;;;;;;;3.46;81.66;99095.34;4958220;28;20043;-63
2021/12/22 00:52:19;;;;;;;20.85;11.80;;;;;;;3.43;81.51;99094.69;4974341;28;20824;-60
2021/12/22 00:54:45;;;;;;;26.65;14.63;;;;;;;3.52;81.12;99098.50;4960836;28;20089;-61
2021/12/22 00:57:11;;;;;;;32.45;17.95;;;;;;;3.44;80.64;99094.59;4958679;28;20033;-62
2021/12/22 00:59:37;;;;;;;31.42;16.42;;;;;;;3.45;81.53;99096.28;4976709;28;20295;-60
2021/12/22 01:02:06;;;;;;;26.13;14.25;;;;;;;3.42;81.86;99101.59;4952039;28;20454;-61
2021/12/22 01:04:32;;;;;;;27.13;16.40;;;;;;;3.36;80.91;99093.38;4953681;28;20030;-62
2021/12/22 01:06:57;;;;;;;27.10;16.45;;;;;;;3.33;81.54;99098.72;4955674;28;20033;-61
2021/12/22 01:09:23;;;;;;;31.77;18.58;;;;;;;3.11;81.54;99066.53;4970841;28;20023;-61
2021/12/22 01:11:49;;;;;;;28.77;17.90;;;;;;;3.37;81.33;99092.47;4960067;28;20023;-60
2021/12/22 01:14:15;;;;;;;25.17;14.73;;;;;;;3.36;81.44;99101.09;4946912;28;20046;-61
2021/12/22 01:16:46;;;;;;;21.83;14.27;;;;;;;3.29;81.14;99089.53;4958486;28;20030;-61
2021/12/22 01:19:15;;;;;;;26.65;16.27;;;;;;;3.17;81.91;99094.44;4960644;28;20142;-60
2021/12/22 01:21:46;;;;;;;30.85;16.90;;;;;;;3.08;82.13;99087.22;4958705;28;20030;-61
2021/12/22 01:24:33;;;;;;;29.48;16.08;;;;;;;3.11;81.95;99087.06;4956866;28;20023;-62
2021/12/22 01:27:08;;;;;;;25.52;13.60;;;;;;;3.05;82.24;99090.00;4957377;28;20137;-62
2021/12/22 01:29:36;;;;;;;24.20;14.38;;;;;;;2.87;82.30;99095.22;4959284;28;20036;-61
2021/12/22 01:32:02;;;;;;;20.08;11.30;;;;;;;2.97;82.63;99107.56;4956014;28;20145;-61
2021/12/22 01:34:28;;;;;;;22.50;13.35;;;;;;;2.93;82.12;99090.66;4958066;28;20061;-61
2021/12/22 01:36:54;;;;;;;24.60;14.68;;;;;;;3.02;81.02;99095.28;4976034;28;20031;-60
2021/12/22 01:39:20;;;;;;;28.08;14.18;;;;;;;2.93;81.19;99103.50;4959034;28;20062;-61
2021/12/22 01:41:45;;;;;;;24.88;13.02;;;;;;;2.90;81.34;99101.91;4959965;28;20035;-62
2021/12/22 01:44:13;;;;;;;21.85;13.35;;;;;;;2.85;82.27;99109.06;4957088;28;20463;-61
2021/12/22 01:49:42;;;;;;;30.70;15.35;;;;;;;2.82;82.07;99124.63;4939301;28;20046;-60
2021/12/22 01:52:08;;;;;;;32.70;16.50;;;;;;;2.87;81.64;99126.03;4978609;28;20042;-60
2021/12/22 01:54:51;;;;;;;24.48;13.73;;;;;;;2.76;82.23;99124.97;4958465;28;20117;-61
2021/12/22 01:57:17;;;;;;;24.90;15.02;;;;;;;2.33;81.91;99076.75;4963210;28;20088;-61
2021/12/22 01:59:46;;;;;;;24.30;14.23;;;;;;;2.64;82.62;99118.75;4975763;28;20390;-61
2021/12/22 02:02:12;;;;;;;29.95;16.27;;;;;;;2.61;82.21;99127.47;4978589;28;20090;-60
2021/12/22 02:04:38;;;;;;;19.08;10.20;;;;;;;2.42;82.79;99121.63;4949046;28;20111;-61
2021/12/22 02:07:05;;;;;;;14.75;8.90;;;;;;;2.26;83.24;99080.53;4972482;28;20576;-62
2021/12/22 02:12:13;;;;;;;15.45;8.00;;;;;;;2.64;82.02;99114.44;4961117;28;20093;-60
2021/12/22 02:14:40;;;;;;;16.45;8.95;;;;;;;2.60;81.79;99118.09;4941185;28;20045;-63
2021/12/22 02:17:09;;;;;;;19.42;10.85;;;;;;;2.59;81.78;99123.31;4959327;28;20027;-62
2021/12/22 02:19:44;;;;;;;20.52;10.65;;;;;;;2.52;81.97;99122.81;4940862;28;20030;-62
2021/12/22 02:22:14;;;;;;;18.08;10.48;;;;;;;2.10;81.70;99065.97;4951555;28;20126;-60
2021/12/22 02:24:54;;;;;;;18.15;10.68;;;;;;;2.23;82.11;99084.09;4960168;28;20674;-61
2021/12/22 02:27:31;;;;;;;21.98;11.55;;;;;;;2.17;83.03;99122.06;4962877;28;20043;-61
2021/12/22 02:30:00;;;;;;;18.23;9.90;;;;;;;2.17;82.78;99130.59;4951079;28;20054;-61
2021/12/22 02:35:12;;;;;;;15.73;8.50;;;;;;;2.26;82.64;99142.13;4952318;28;20044;-60
2021/12/22 02:37:44;;;;;;;16.50;8.75;;;;;;;2.17;83.31;99143.41;4961497;28;20030;-61
2021/12/22 02:40:14;;;;;;;14.02;8.35;;;;;;;2.23;82.87;99134.59;4961163;28;20058;-61
2021/12/22 02:42:40;;;;;;;13.85;8.98;;;;;;;2.38;82.34;99140.69;4962476;28;20105;-61
2021/12/22 02:45:07;;;;;;;15.98;9.48;;;;;;;2.34;82.64;99146.84;4954454;28;20035;-61
2021/12/22 02:47:33;;;;;;;12.68;8.40;;;;;;;2.34;82.96;99142.56;4976045;28;20031;-61
2021/12/22 02:49:58;;;;;;;14.35;8.75;;;;;;;2.14;82.33;99141.03;4941985;28;20046;-61
2021/12/22 02:52:31;;;;;;;20.52;9.18;;;;;;;2.19;83.26;99133.94;4977924;28;20031;-61
2021/12/22 02:54:57;;;;;;;15.00;8.88;;;;;;;2.21;83.23;99144.94;4960769;28;20062;-60
2021/12/22 02:57:30;;;;;;;13.60;8.50;;;;;;;1.96;83.08;99096.63;4951939;28;20031;-62
2021/12/22 03:00:30;;;;;;;18.42;9.52;;;;;;;1.90;82.34;99102.91;4976340;28;20054;-60
2021/12/22 03:05:22;;;;;;;17.50;9.50;;;;;;;2.15;82.92;99145.25;4956256;28;20035;-61
2021/12/22 03:07:48;;;;;;;23.38;12.77;;;;;;;2.09;82.73;99138.69;4955449;28;20062;-61
2021/12/22 03:10:17;;;;;;;38.80;17.70;;;;;;;2.12;82.92;99140.28;4959090;28;20038;-61
2021/12/22 03:12:44;;;;;;;80.68;34.75;;;;;;;2.12;83.43;99145.41;4960955;28;20038;-62
2021/12/22 03:15:10;;;;;;;50.60;25.58;;;;;;;2.10;82.75;99139.53;4954550;28;20074;-61
2021/12/22 03:17:37;;;;;;;40.17;21.17;;;;;;;2.03;83.33;99140.75;4960439;28;20042;-60
2021/12/22 03:20:04;;;;;;;19.92;11.27;;;;;;;2.07;83.39;99145.63;4957731;28;20027;-61
2021/12/22 03:22:30;;;;;;;24.85;11.98;;;;;;;2.02;83.07;99146.78;4960611;28;20034;-60
2021/12/22 03:24:55;;;;;;;18.48;11.02;;;;;;;1.74;82.86;99094.31;4953756;28;20239;-62
2021/12/22 03:27:23;;;;;;;21.58;11.10;;;;;;;1.99;82.95;99146.94;4951208;28;20019;-64
2021/12/22 03:29:49;;;;;;;22.67;11.15;;;;;;;1.97;83.30;99148.75;4958994;28;20085;-61
2021/12/22 03:32:14;;;;;;;18.88;11.25;;;;;;;2.02;84.00;99154.47;4960029;28;20035;-61
2021/12/22 03:34:40;;;;;;;17.63;10.18;;;;;;;1.95;83.71;99151.38;4975607;28;20473;-62
2021/12/22 03:37:06;;;;;;;24.00;13.30;;;;;;;1.57;83.42;99095.16;4940326;28;20034;-60
2021/12/22 03:39:32;;;;;;;23.33;12.90;;;;;;;1.91;83.57;99160.97;4976387;28;20070;-61
2021/12/22 03:41:58;;;;;;;24.10;13.27;;;;;;;1.98;83.69;99163.22;4956884;28;20110;-61
2021/12/22 03:44:23;;;;;;;24.40;14.35;;;;;;;1.95;83.77;99164.19;4962571;28;20034;-61
2021/12/22 03:46:51;;;;;;;28.67;14.48;;;;;;;1.94;83.63;99154.88;4959709;28;20768;-61
2021/12/22 03:49:17;;;;;;;28.75;14.70;;;;;;;1.81;83.61;99130.75;4970802;28;20062;-63
2021/12/22 03:51:42;;;;;;;31.13;15.98;;;;;;;1.99;84.14;99152.06;4976948;28;20843;-61
2021/12/22 03:54:11;;;;;;;26.50;14.48;;;;;;;2.02;83.70;99150.16;4975380;28;20517;-60
2021/12/22 03:56:36;;;;;;;25.52;14.10;;;;;;;2.04;84.00;99162.91;4956200;28;20042;-62
2021/12/22 03:59:03;;;;;;;24.98;13.75;;;;;;;1.96;83.96;99135.09;4976038;28;20039;-61
2021/12/22 04:01:28;;;;;;;23.45;13.73;;;;;;;2.08;83.60;99164.41;4954903;28;21341;-61
2021/12/22 04:03:58;;;;;;;21.67;12.48;;;;;;;2.09;84.04;99163.53;4973062;28;20031;-61
2021/12/22 04:06:23;;;;;;;22.30;13.20;;;;;;;1.98;84.22;99151.22;4959459;28;20561;-61
2021/12/22 04:08:49;;;;;;;21.02;12.10;;;;;;;1.51;83.70;99105.72;4978638;28;20038;-62
2021/12/22 04:11:14;;;;;;;23.13;12.48;;;;;;;1.92;84.04;99179.75;4960632;28;20430;-61
2021/12/22 04:13:40;;;;;;;20.38;11.38;;;;;;;1.83;84.33;99172.53;4959384;28;20034;-62
2021/12/22 04:16:05;;;;;;;18.42;10.70;;;;;;;1.86;83.62;99168.06;4959599;28;20066;-62
2021/12/22 04:18:31;;;;;;;28.33;16.33;;;;;;;1.98;84.23;99178.63;4958939;28;20501;-61
2021/12/22 04:20:56;;;;;;;29.13;16.27;;;;;;;1.98;84.40;99179.44;4974239;28;20442;-61
2021/12/22 04:23:22;;;;;;;27.48;16.05;;;;;;;1.95;83.91;99178.78;4959382;28;20034;-60
2021/12/22 04:25:47;;;;;;;24.63;13.77;;;;;;;1.90;84.87;99181.56;4960375;28;20089;-61
2021/12/22 04:28:13;;;;;;;22.05;12.25;;;;;;;1.86;83.88;99173.22;4957169;28;20038;-61
2021/12/22 04:30:42;;;;;;;20.45;12.30;;;;;;;1.53;84.28;99121.84;4959636;28;20076;-61
2021/12/22 04:33:08;;;;;;;18.75;11.02;;;;;;;1.37;84.61;99108.09;4958731;28;20078;-61
2021/12/22 04:35:34;;;;;;;16.83;10.85;;;;;;;1.87;84.30;99179.16;4955908;28;20497;-63
2021/12/22 04:38:00;;;;;;;20.52;11.50;;;;;;;1.87;83.77;99179.16;4941713;28;20035;-61
2021/12/22 04:40:26;;;;;;;40.03;21.13;;;;;;;1.62;85.31;99197.47;4957454;28;20330;-60
2021/12/22 04:42:51;;;;;;;32.38;17.58;;;;;;;1.37;86.43;99190.09;4944086;28;20033;-61
2021/12/22 04:45:17;;;;;;;34.80;17.50;;;;;;;1.51;86.29;99198.78;4960519;28;20988;-61
2021/12/22 04:47:44;;;;;;;31.83;17.38;;;;;;;1.59;85.98;99193.31;4944242;28;20030;-62
2021/12/22 04:50:15;;;;;;;27.67;16.10;;;;;;;1.69;85.88;99196.25;4975987;28;20509;-60
2021/12/22 04:52:50;;;;;;;29.63;15.60;;;;;;;1.45;85.05;99144.47;4943118;28;20019;-61
2021/12/22 04:55:16;;;;;;;31.05;16.13;;;;;;;1.84;84.44;99192.94;4959497;28;20089;-61
2021/12/22 04:57:41;;;;;;;27.48;15.55;;;;;;;1.84;84.43;99194.69;4957259;28;20022;-61
2021/12/22 05:00:10;;;;;;;28.10;15.63;;;;;;;1.82;84.68;99184.50;4960151;28;20478;-61
2021/12/22 05:02:35;;;;;;;29.90;16.02;;;;;;;1.76;84.24;99179.69;4959061;28;20023;-62
2021/12/22 05:05:01;;;;;;;28.17;14.95;;;;;;;1.63;84.42;99161.50;4941571;28;20027;-61
2021/12/22 05:07:26;;;;;;;34.15;17.48;;;;;;;1.65;84.68;99182.75;4958378;28;20057;-62
2021/12/22 05:09:52;;;;;;;28.20;16.08;;;;;;;1.65;84.25;99200.72;4956575;28;20027;-61
2021/12/22 05:12:17;;;;;;;31.42;15.38;;;;;;;1.26;85.10;99134.25;4953497;28;20058;-61
2021/12/22 05:14:47;;;;;;;18.92;11.80;;;;;;;1.46;84.69;99161.47;4955165;28;20114;-62
2021/12/22 05:17:19;;;;;;;23.17;11.80;;;;;;;1.58;84.69;99203.66;4960690;28;20334;-60
2021/12/22 05:19:44;;;;;;;28.50;16.27;;;;;;;1.56;84.76;99208.84;4959110;28;20515;-60
2021/12/22 05:22:10;;;;;;;32.70;16.33;;;;;;;1.49;85.51;99203.16;4959758;28;20687;-61
2021/12/22 05:24:35;;;;;;;33.72;17.40;;;;;;;1.61;85.08;99199.22;4970828;28;20446;-60
2021/12/22 05:27:01;;;;;;;40.00;20.17;;;;;;;1.62;85.41;99215.41;4972549;28;20066;-61
2021/12/22 05:29:26;;;;;;;37.25;19.85;;;;;;;1.66;85.33;99225.47;4943284;28;20031;-62
2021/12/22 05:31:54;;;;;;;34.15;18.02;;;;;;;1.35;84.58;99172.25;4963844;28;20118;-61
2021/12/22 05:34:20;;;;;;;33.13;18.50;;;;;;;1.69;84.85;99229.59;4963104;28;20046;-61
2021/12/22 05:36:46;;;;;;;31.17;16.45;;;;;;;1.42;85.09;99188.97;4975761;28;20522;-60
2021/12/22 05:39:11;;;;;;;28.67;15.63;;;;;;;1.65;85.22;99226.34;4979832;28;20030;-61
2021/12/22 05:41:37;;;;;;;30.92;16.55;;;;;;;1.56;84.37;99219.09;4961085;28;20034;-62
2021/12/22 05:44:02;;;;;;;30.77;15.45;;;;;;;1.21;87.06;99164.41;4953686;28;20587;-62
2021/12/22 05:46:29;;;;;;;30.73;17.42;;;;;;;1.31;85.56;99166.47;4959164;28;20058;-62
2021/12/22 05:48:54;;;;;;;26.58;14.95;;;;;;;1.62;85.63;99213.66;4958288;28;20106;-62
2021/12/22 05:51:22;;;;;;;28.30;15.30;;;;;;;1.67;85.40;99192.94;4959746;28;20022;-62
2021/12/22 05:53:47;;;;;;;28.15;15.18;;;;;;;1.30;86.52;99169.91;4960657;28;20055;-62
2021/12/22 05:56:13;;;;;;;28.10;15.32;;;;;;;1.41;87.32;99182.22;4974829;28;20518;-61
2021/12/22 05:58:38;;;;;;;25.38;15.13;;;;;;;1.45;86.94;99170.91;4977576;28;20026;-61
2021/12/22 06:01:04;;;;;;;21.85;13.93;;;;;;;1.67;87.12;99214.28;4972683;28;20030;-61
2021/12/22 06:03:29;;;;;;;24.30;15.00;;;;;;;1.73;87.88;99210.59;4952192;28;20031;-61
2021/12/22 06:05:55;;;;;;;24.25;14.20;;;;;;;1.79;87.37;99219.72;4955749;28;20030;-61
2021/12/22 06:08:20;;;;;;;24.63;15.02;;;;;;;1.60;86.92;99181.34;4938395;28;20060;-61
2021/12/22 06:10:46;;;;;;;20.88;13.75;;;;;;;1.80;87.07;99224.78;4950130;28;20110;-62
2021/12/22 06:13:12;;;;;;;21.15;12.80;;;;;;;1.70;86.54;99224.41;4953011;28;20050;-62
2021/12/22 06:15:39;;;;;;;21.83;13.55;;;;;;;1.77;87.59;99224.94;4958360;28;20030;-62
2021/12/22 06:18:05;;;;;;;20.10;13.15;;;;;;;1.87;86.91;99227.88;4956416;28;20489;-61
2021/12/22 06:20:31;;;;;;;22.48;13.38;;;;;;;1.87;86.90;99228.69;4962870;28;20474;-61
2021/12/22 06:22:57;;;;;;;23.67;13.38;;;;;;;1.72;86.98;99219.19;4956613;28;20437;-61
2021/12/22 06:25:24;;;;;;;20.55;13.10;;;;;;;1.46;87.59;99182.84;4963631;28;20046;-61
2021/12/22 06:27:49;;;;;;;21.38;13.30;;;;;;;1.76;86.58;99228.41;4935363;28;20047;-62
2021/12/22 06:30:15;;;;;;;21.15;13.60;;;;;;;1.76;87.12;99238.66;4976146;28;20121;-61
2021/12/22 06:32:40;;;;;;;21.63;14.05;;;;;;;1.79;86.64;99243.66;4957935;28;20062;-62
2021/12/22 06:35:07;;;;;;;19.80;13.38;;;;;;;1.79;86.82;99251.34;4956234;28;20042;-61
2021/12/22 06:37:33;;;;;;;21.95;13.80;;;;;;;1.76;86.19;99245.53;4938505;28;20035;-61
2021/12/22 06:39:58;;;;;;;22.45;13.75;;;;;;;1.63;86.93;99238.41;4971933;28;20553;-63
2021/12/22 06:42:24;;;;;;;23.05;13.95;;;;;;;1.68;87.36;99246.72;4967196;28;20129;-62
2021/12/22 06:44:52;;;;;;;20.80;13.57;;;;;;;1.81;87.44;99257.22;4952360;28;20882;-62
2021/12/22 06:47:18;;;;;;;24.48;15.23;;;;;;;1.62;86.67;99220.53;4955234;28;20046;-62
2021/12/22 06:49:43;;;;;;;23.10;14.70;;;;;;;1.87;86.28;99251.78;4940518;28;20023;-63
2021/12/22 06:52:09;;;;;;;27.38;15.57;;;;;;;1.91;85.80;99265.28;4957399;28;20034;-62
2021/12/22 06:54:34;;;;;;;30.48;17.73;;;;;;;1.67;87.26;99268.13;4961220;28;20505;-61
2021/12/22 06:57:01;;;;;;;35.58;21.38;;;;;;;1.65;87.56;99256.28;4958154;28;20039;-62
2021/12/22 06:59:26;;;;;;;36.67;20.85;;;;;;;1.72;88.71;99261.03;4955094;28;20054;-61
2021/12/22 07:01:51;;;;;;;39.65;22.60;;;;;;;1.76;87.96;99268.59;4973802;28;20117;-64
2021/12/22 07:04:18;;;;;;;32.97;20.23;;;;;;;1.73;88.00;99262.72;4961537;28;20027;-62
2021/12/22 07:06:43;;;;;;;32.70;19.60;;;;;;;1.80;87.36;99265.81;4959683;28;20061;-61
2021/12/22 07:09:08;;;;;;;33.90;18.38;;;;;;;1.85;86.79;99276.69;4970976;28;20462;-62
2021/12/22 07:11:36;;;;;;;28.40;17.50;;;;;;;1.56;86.20;99226.78;4946093;28;20374;-63
2021/12/22 07:14:02;;;;;;;29.98;17.17;;;;;;;1.83;86.77;99275.94;4960723;28;21015;-62
2021/12/22 07:16:27;;;;;;;25.48;16.75;;;;;;;1.82;86.59;99281.94;4976397;28;20049;-62
2021/12/22 07:18:53;;;;;;;28.20;16.63;;;;;;;1.79;87.41;99286.38;4959364;28;20544;-63
2021/12/22 07:21:18;;;;;;;26.10;16.33;;;;;;;1.68;86.99;99266.38;4959133;28;20106;-62
2021/12/22 07:23:44;;;;;;;25.63;14.88;;;;;;;1.71;86.99;99267.06;4960605;28;20378;-62
2021/12/22 07:26:13;;;;;;;26.95;15.60;;;;;;;1.80;86.71;99286.31;4960317;28;20070;-62
2021/12/22 07:28:40;;;;;;;31.83;16.35;;;;;;;1.88;85.97;99293.63;4961797;28;20378;-62
2021/12/22 07:31:06;;;;;;;34.75;19.85;;;;;;;1.89;86.24;99300.44;4963277;28;20026;-61
2021/12/22 07:33:31;;;;;;;41.58;21.80;;;;;;;1.84;86.17;99305.78;4955501;28;20046;-63
2021/12/22 07:36:02;;;;;;;41.95;22.38;;;;;;;1.47;86.03;99243.44;4958347;28;20077;-60
2021/12/22 07:38:48;;;;;;;43.92;22.00;;;;;;;1.82;86.20;99301.63;4975392;28;20068;-63
2021/12/22 07:41:13;;;;;;;52.80;22.05;;;;;;;1.72;85.93;99299.50;4959547;28;20058;-62
2021/12/22 07:43:39;;;;;;;48.60;22.55;;;;;;;1.65;86.37;99302.44;4963169;28;20532;-62
2021/12/22 07:46:08;;;;;;;57.25;22.92;;;;;;;1.61;86.37;99299.19;4974490;28;20525;-63
2021/12/22 07:48:34;;;;;;;62.00;24.08;;;;;;;1.63;85.85;99304.25;4957016;28;20023;-62
2021/12/22 07:50:59;;;;;;;52.20;24.08;;;;;;;1.56;86.91;99306.25;4974100;28;20398;-62
2021/12/22 07:53:25;;;;;;;87.80;25.52;;;;;;;1.66;86.50;99315.19;4959669;28;20561;-62
2021/12/22 07:55:53;;;;;;;47.10;22.10;;;;;;;1.51;86.75;99311.56;4963299;28;20537;-61
2021/12/22 07:58:23;;;;;;;64.60;23.63;;;;;;;1.63;86.52;99324.75;4959677;28;20031;-62
2021/12/22 08:00:49;;;;;;;53.13;22.45;;;;;;;1.57;86.55;99325.88;4958347;28;20605;-62
2021/12/22 08:03:15;;;;;;;54.45;22.20;;;;;;;1.69;86.60;99329.59;4941470;28;20031;-61
2021/12/22 08:05:40;;;;;;;56.92;22.08;;;;;;;1.72;85.82;99340.53;4961492;28;20050;-62
2021/12/22 08:08:06;;;;;;;44.15;20.98;;;;;;;1.45;86.07;99286.22;4948338;28;20062;-61
2021/12/22 08:10:31;;;;;;;49.55;21.75;;;;;;;1.78;86.84;99329.16;4960708;28;20027;-61
2021/12/22 08:12:57;;;;;;;47.85;20.13;;;;;;;1.74;87.02;99325.09;4975139;28;20033;-61
2021/12/22 08:15:23;;;;;;;55.20;20.60;;;;;;;1.30;87.70;99251.91;4975996;28;20049;-61
2021/12/22 08:17:49;;;;;;;53.22;20.90;;;;;;;1.86;87.20;99334.78;4953502;28;20075;-62
2021/12/22 08:20:14;;;;;;;45.53;19.10;;;;;;;1.52;87.86;99279.94;4960057;28;20105;-62
2021/12/22 08:22:40;;;;;;;41.78;19.00;;;;;;;1.92;87.54;99346.47;4976449;28;20027;-61
2021/12/22 08:25:06;;;;;;;42.17;20.10;;;;;;;1.87;87.76;99348.41;4955768;28;20030;-61
2021/12/22 08:27:33;;;;;;;30.23;17.75;;;;;;;1.84;87.91;99344.25;4962523;28;20049;-61
2021/12/22 08:29:58;;;;;;;31.88;17.83;;;;;;;1.64;88.61;99316.16;4977100;28;20544;-62
2021/12/22 08:32:24;;;;;;;36.63;18.92;;;;;;;1.90;88.62;99338.03;4960718;28;20090;-62
2021/12/22 08:34:55;;;;;;;29.98;18.00;;;;;;;2.07;88.11;99348.31;4957065;28;20094;-62
2021/12/22 08:40:05;;;;;;;27.38;17.42;;;;;;;2.06;87.88;99338.09;4972548;28;20041;-61
2021/12/22 08:42:31;;;;;;;27.88;17.90;;;;;;;2.14;88.04;99342.91;4956711;28;20066;-63
2021/12/22 08:44:56;;;;;;;26.80;16.17;;;;;;;2.22;87.19;99349.31;4976093;28;20062;-62
2021/12/22 08:47:22;;;;;;;25.17;16.23;;;;;;;2.27;86.83;99355.06;4952054;28;20465;-62
2021/12/22 08:49:48;;;;;;;23.85;15.82;;;;;;;2.34;87.33;99352.16;4959390;28;20243;-62
2021/12/22 08:52:13;;;;;;;26.73;17.02;;;;;;;2.30;86.63;99354.09;4957176;28;20528;-62
2021/12/22 08:54:39;;;;;;;26.92;16.35;;;;;;;2.41;86.56;99364.66;4958648;28;20035;-62
2021/12/22 08:57:04;;;;;;;23.52;15.45;;;;;;;2.40;86.90;99368.13;4973672;28;20035;-62
2021/12/22 08:59:30;;;;;;;25.20;16.27;;;;;;;2.35;86.86;99377.78;4977058;28;20113;-61
2021/12/22 09:01:56;;;;;;;23.95;16.50;;;;;;;2.37;87.40;99383.66;4975884;28;20038;-63
2021/12/22 09:04:22;;;;;;;23.48;16.17;;;;;;;2.40;86.98;99382.69;4958290;28;20088;-61
2021/12/22 09:06:51;;;;;;;26.25;15.50;;;;;;;2.29;87.29;99376.34;4957860;28;20043;-62
2021/12/22 09:09:18;;;;;;;28.20;16.88;;;;;;;2.44;86.95;99387.59;4958715;28;20102;-63
2021/12/22 09:11:44;;;;;;;28.00;16.92;;;;;;;2.48;86.73;99385.72;4956380;28;20094;-61
2021/12/22 09:14:10;;;;;;;32.40;15.77;;;;;;;2.50;86.72;99384.75;4956004;28;20031;-61
2021/12/22 09:16:37;;;;;;;24.52;15.98;;;;;;;2.49;87.54;99393.34;4971431;28;20049;-64
2021/12/22 09:19:04;;;;;;;25.38;15.70;;;;;;;2.46;87.12;99385.81;4958226;28;20047;-62
2021/12/22 09:21:29;;;;;;;24.70;16.77;;;;;;;2.42;86.86;99380.88;4951837;28;20185;-63
2021/12/22 09:23:55;;;;;;;25.92;18.10;;;;;;;2.42;87.22;99380.88;4956337;28;20379;-62
2021/12/22 09:26:21;;;;;;;26.35;16.98;;;;;;;2.33;86.59;99365.94;4961099;28;20035;-61
2021/12/22 09:28:46;;;;;;;24.23;17.25;;;;;;;2.60;86.61;99404.84;4960721;28;20803;-61
2021/12/22 09:31:12;;;;;;;25.55;17.08;;;;;;;2.56;86.87;99404.16;4960035;28;20521;-62
2021/12/22 09:33:38;;;;;;;30.27;18.60;;;;;;;2.68;86.22;99412.97;4960194;28;20659;-61
2021/12/22 09:36:07;;;;;;;26.17;17.90;;;;;;;2.66;86.39;99417.38;4973341;28;20034;-62
2021/12/22 09:38:32;;;;;;;25.80;18.02;;;;;;;2.71;86.91;99419.72;4974446;28;20050;-62
2021/12/22 09:40:58;;;;;;;27.10;18.27;;;;;;;2.69;87.28;99425.75;4961644;28;20480;-61
2021/12/22 09:43:24;;;;;;;28.00;18.08;;;;;;;2.66;87.26;99422.50;4976299;28;20105;-61
2021/12/22 09:45:56;;;;;;;27.00;17.40;;;;;;;2.40;87.30;99386.09;4974962;28;20034;-60
2021/12/22 09:48:48;;;;;;;25.48;17.55;;;;;;;2.66;87.47;99423.31;4973342;28;20614;-61
2021/12/22 09:53:44;;;;;;;27.08;16.92;;;;;;;2.77;85.50;99421.97;4953940;28;20213;-60
2021/12/22 09:56:11;;;;;;;26.10;16.65;;;;;;;2.80;85.87;99432.09;4965823;28;20027;-59
2021/12/22 09:58:39;;;;;;;24.98;17.48;;;;;;;2.74;86.51;99428.09;4972781;28;20135;-60
2021/12/22 10:01:05;;;;;;;24.00;16.13;;;;;;;2.63;86.70;99407.25;4970960;28;20015;-62
2021/12/22 10:03:31;;;;;;;24.05;16.17;;;;;;;2.78;85.73;99413.38;4943510;28;20682;-61
2021/12/22 10:05:57;;;;;;;25.73;17.55;;;;;;;2.80;85.52;99414.94;4976551;28;20613;-60
2021/12/22 10:08:25;;;;;;;32.60;16.85;;;;;;;2.49;85.76;99362.53;4974215;28;20030;-61
2021/12/22 10:11:00;;;;;;;25.30;16.80;;;;;;;2.90;85.61;99420.44;4955962;28;20602;-60
2021/12/22 10:13:28;;;;;;;23.88;17.55;;;;;;;2.49;86.13;99364.28;4958823;28;20042;-61
2021/12/22 10:15:54;;;;;;;25.23;16.35;;;;;;;2.63;85.59;99415.78;4961410;28;20026;-60
2021/12/22 10:18:23;;;;;;;24.67;17.35;;;;;;;2.47;86.39;99379.75;4965154;28;20468;-61
2021/12/22 10:20:50;;;;;;;26.00;17.20;;;;;;;2.75;85.46;99411.78;4980185;28;20401;-60
2021/12/22 10:23:23;;;;;;;24.00;16.85;;;;;;;2.69;85.77;99399.25;4964461;28;20461;-59
2021/12/22 10:25:56;;;;;;;24.52;18.08;;;;;;;2.51;85.53;99365.03;4960322;28;20088;-61
2021/12/22 10:28:23;;;;;;;24.08;16.35;;;;;;;2.58;84.50;99373.28;4975824;28;20027;-60
2021/12/22 10:30:55;;;;;;;24.05;16.27;;;;;;;2.86;84.45;99414.63;4972915;28;20050;-60
2021/12/22 10:33:24;;;;;;;23.52;16.35;;;;;;;2.81;84.08;99413.22;4942447;28;20034;-60
2021/12/22 10:36:14;;;;;;;26.38;17.70;;;;;;;2.92;84.10;99404.97;4977221;28;20478;-60
2021/12/22 10:38:40;;;;;;;23.98;16.60;;;;;;;2.96;83.89;99404.75;4955946;28;20046;-60
2021/12/22 10:41:10;;;;;;;22.73;15.82;;;;;;;2.98;82.79;99392.66;4951869;28;20035;-60
2021/12/22 10:43:48;;;;;;;22.55;15.52;;;;;;;3.02;81.77;99395.91;4974875;28;20035;-62
2021/12/22 10:46:26;;;;;;;21.50;15.02;;;;;;;2.86;81.62;99363.25;4975351;28;20029;-61
2021/12/22 10:49:20;;;;;;;21.80;15.00;;;;;;;2.95;82.08;99391.97;4971571;28;20021;-60
2021/12/22 10:52:00;;;;;;;23.05;15.18;;;;;;;2.93;81.55;99388.66;4963494;28;20118;-60
2021/12/22 10:54:34;;;;;;;21.73;14.95;;;;;;;2.67;81.66;99336.88;4960404;28;20453;-60
2021/12/22 10:57:01;;;;;;;23.77;15.50;;;;;;;3.01;80.86;99378.81;4971386;28;20123;-60
2021/12/22 10:59:26;;;;;;;23.45;14.82;;;;;;;2.97;80.83;99372.19;4958214;28;20027;-60
2021/12/22 11:01:57;;;;;;;23.40;14.98;;;;;;;3.10;81.23;99382.66;4958132;28;20109;-61
2021/12/22 11:04:29;;;;;;;21.60;15.50;;;;;;;3.05;81.55;99383.72;4961388;28;20086;-60
2021/12/22 11:06:56;;;;;;;20.02;14.32;;;;;;;2.75;80.25;99334.72;4955364;28;20058;-61
2021/12/22 11:09:23;;;;;;;25.50;16.33;;;;;;;2.86;80.79;99344.47;4962409;28;20031;-60
2021/12/22 11:11:56;;;;;;;29.38;19.58;;;;;;;3.09;81.49;99369.00;4974721;28;20031;-60
2021/12/22 11:14:24;;;;;;;34.92;24.00;;;;;;;3.22;81.26;99377.72;4962398;28;20034;-61
2021/12/22 11:17:10;;;;;;;28.30;20.17;;;;;;;3.33;80.42;99374.59;4970389;28;20034;-61
2021/12/22 11:20:01;;;;;;;25.92;18.40;;;;;;;3.42;79.54;99383.56;4951868;28;20102;-63
2021/12/22 11:22:39;;;;;;;26.25;17.73;;;;;;;3.49;78.63;99379.78;4962097;28;20114;-61
2021/12/22 11:25:11;;;;;;;26.13;18.33;;;;;;;3.46;78.14;99382.50;4959633;28;20035;-62
2021/12/22 11:27:37;;;;;;;23.15;16.40;;;;;;;3.16;78.08;99306.09;4963503;28;20026;-62
2021/12/22 11:30:03;;;;;;;24.48;16.42;;;;;;;3.47;76.72;99359.28;4973742;28;20573;-61
2021/12/22 11:32:31;;;;;;;27.95;18.75;;;;;;;3.31;76.39;99304.44;4947666;28;20043;-62
2021/12/22 11:35:02;;;;;;;24.42;14.68;;;;;;;3.74;76.33;99343.28;4960418;28;20082;-62
2021/12/22 11:37:28;;;;;;;26.77;15.32;;;;;;;3.49;75.74;99305.19;4973111;28;20031;-61
2021/12/22 11:39:54;;;;;;;25.45;15.43;;;;;;;3.85;76.51;99353.81;4950157;28;20027;-61
2021/12/22 11:42:24;;;;;;;22.48;15.35;;;;;;;3.89;76.40;99349.31;4963356;28;20038;-60
2021/12/22 11:44:53;;;;;;;20.17;14.20;;;;;;;3.97;75.54;99342.00;4970896;28;20037;-61